sensor_id;sensor_type;location;lat;lon;timestamp;P1;durP1;ratioP1;P2;durP2;ratioP2
24559;SDS011;12727;49.934;8.656;2023-06-14T00:00:38;9.63;;;4.82;;
24559;SDS011;12727;49.934;8.656;2023-06-14T00:03:06;6.03;;;5.30;;
24559;SDS011;12727;49.934;8.656;2023-06-14T00:05:33;8.18;;;5.03;;
24559;SDS011;12727;49.934;8.656;2023-06-14T00:08:03;7.07;;;4.80;;
24559;SDS011;12727;49.934;8.656;2023-06-14T00:10:32;6.43;;;4.80;;
24559;SDS011;12727;49.934;8.656;2023-06-14T00:13:00;7.50;;;5.03;;
24559;SDS011;12727;49.934;8.656;2023-06-14T00:15:26;6.53;;;5.10;;
24559;SDS011;12727;49.934;8.656;2023-06-14T00:17:53;6.65;;;5.20;;
24559;SDS011;12727;49.934;8.656;2023-06-14T00:20:19;6.53;;;5.07;;
24559;SDS011;12727;49.934;8.656;2023-06-14T00:22:45;8.05;;;4.75;;
24559;SDS011;12727;49.934;8.656;2023-06-14T00:25:11;7.05;;;5.00;;
24559;SDS011;12727;49.934;8.656;2023-06-14T00:27:37;8.05;;;4.57;;
24559;SDS011;12727;49.934;8.656;2023-06-14T00:30:02;6.93;;;4.88;;
24559;SDS011;12727;49.934;8.656;2023-06-14T00:32:28;4.97;;;4.47;;
24559;SDS011;12727;49.934;8.656;2023-06-14T00:34:54;8.02;;;5.30;;
24559;SDS011;12727;49.934;8.656;2023-06-14T00:37:20;7.88;;;5.05;;
24559;SDS011;12727;49.934;8.656;2023-06-14T00:39:46;5.47;;;4.53;;
24559;SDS011;12727;49.934;8.656;2023-06-14T00:42:11;7.30;;;5.10;;
24559;SDS011;12727;49.934;8.656;2023-06-14T00:44:48;6.97;;;5.00;;
24559;SDS011;12727;49.934;8.656;2023-06-14T00:47:14;7.30;;;5.18;;
24559;SDS011;12727;49.934;8.656;2023-06-14T00:49:39;6.72;;;5.13;;
24559;SDS011;12727;49.934;8.656;2023-06-14T00:52:05;6.60;;;5.20;;
24559;SDS011;12727;49.934;8.656;2023-06-14T00:54:31;7.93;;;5.32;;
24559;SDS011;12727;49.934;8.656;2023-06-14T00:56:57;6.03;;;5.43;;
24559;SDS011;12727;49.934;8.656;2023-06-14T00:59:23;5.70;;;5.10;;
24559;SDS011;12727;49.934;8.656;2023-06-14T01:01:48;5.68;;;5.07;;
24559;SDS011;12727;49.934;8.656;2023-06-14T01:04:14;7.57;;;5.30;;
24559;SDS011;12727;49.934;8.656;2023-06-14T01:06:45;7.88;;;5.68;;
24559;SDS011;12727;49.934;8.656;2023-06-14T01:09:33;5.95;;;5.07;;
24559;SDS011;12727;49.934;8.656;2023-06-14T01:14:46;9.20;;;5.38;;
24559;SDS011;12727;49.934;8.656;2023-06-14T01:17:13;6.80;;;5.25;;
24559;SDS011;12727;49.934;8.656;2023-06-14T01:19:44;7.97;;;5.00;;
24559;SDS011;12727;49.934;8.656;2023-06-14T01:22:10;11.65;;;5.15;;
24559;SDS011;12727;49.934;8.656;2023-06-14T01:24:36;6.65;;;5.25;;
24559;SDS011;12727;49.934;8.656;2023-06-14T01:27:04;7.65;;;5.88;;
24559;SDS011;12727;49.934;8.656;2023-06-14T01:29:30;8.35;;;5.18;;
24559;SDS011;12727;49.934;8.656;2023-06-14T01:32:01;7.30;;;5.13;;
24559;SDS011;12727;49.934;8.656;2023-06-14T01:34:27;6.75;;;4.70;;
24559;SDS011;12727;49.934;8.656;2023-06-14T01:36:53;7.50;;;5.32;;
24559;SDS011;12727;49.934;8.656;2023-06-14T01:39:22;6.03;;;5.05;;
24559;SDS011;12727;49.934;8.656;2023-06-14T01:41:48;6.82;;;5.00;;
24559;SDS011;12727;49.934;8.656;2023-06-14T01:44:16;7.57;;;5.35;;
24559;SDS011;12727;49.934;8.656;2023-06-14T01:46:42;6.95;;;5.20;;
24559;SDS011;12727;49.934;8.656;2023-06-14T01:49:10;8.20;;;5.07;;
24559;SDS011;12727;49.934;8.656;2023-06-14T01:51:36;6.97;;;5.20;;
24559;SDS011;12727;49.934;8.656;2023-06-14T01:54:02;6.47;;;5.10;;
24559;SDS011;12727;49.934;8.656;2023-06-14T01:56:27;8.27;;;5.20;;
24559;SDS011;12727;49.934;8.656;2023-06-14T01:58:53;5.88;;;5.18;;
24559;SDS011;12727;49.934;8.656;2023-06-14T02:01:19;7.43;;;5.07;;
24559;SDS011;12727;49.934;8.656;2023-06-14T02:03:46;8.57;;;5.18;;
24559;SDS011;12727;49.934;8.656;2023-06-14T02:06:14;6.63;;;5.70;;
24559;SDS011;12727;49.934;8.656;2023-06-14T02:08:41;7.07;;;5.38;;
24559;SDS011;12727;49.934;8.656;2023-06-14T02:11:07;8.43;;;5.78;;
24559;SDS011;12727;49.934;8.656;2023-06-14T02:13:33;9.10;;;5.53;;
24559;SDS011;12727;49.934;8.656;2023-06-14T02:15:59;9.88;;;5.13;;
24559;SDS011;12727;49.934;8.656;2023-06-14T02:18:25;7.10;;;5.35;;
24559;SDS011;12727;49.934;8.656;2023-06-14T02:20:51;9.32;;;5.90;;
24559;SDS011;12727;49.934;8.656;2023-06-14T02:23:17;9.88;;;5.72;;
24559;SDS011;12727;49.934;8.656;2023-06-14T02:25:42;11.60;;;5.45;;
24559;SDS011;12727;49.934;8.656;2023-06-14T02:28:09;7.75;;;5.38;;
24559;SDS011;12727;49.934;8.656;2023-06-14T02:30:35;7.38;;;5.30;;
24559;SDS011;12727;49.934;8.656;2023-06-14T02:33:01;8.45;;;5.50;;
24559;SDS011;12727;49.934;8.656;2023-06-14T02:35:26;7.35;;;5.22;;
24559;SDS011;12727;49.934;8.656;2023-06-14T02:37:52;7.72;;;5.45;;
24559;SDS011;12727;49.934;8.656;2023-06-14T02:40:19;7.50;;;5.25;;
24559;SDS011;12727;49.934;8.656;2023-06-14T02:42:45;7.50;;;5.60;;
24559;SDS011;12727;49.934;8.656;2023-06-14T02:45:11;7.82;;;5.35;;
24559;SDS011;12727;49.934;8.656;2023-06-14T02:47:36;8.20;;;4.95;;
24559;SDS011;12727;49.934;8.656;2023-06-14T02:50:02;8.05;;;5.20;;
24559;SDS011;12727;49.934;8.656;2023-06-14T02:52:28;7.07;;;5.35;;
24559;SDS011;12727;49.934;8.656;2023-06-14T02:54:54;6.60;;;5.43;;
24559;SDS011;12727;49.934;8.656;2023-06-14T02:57:20;9.25;;;5.32;;
24559;SDS011;12727;49.934;8.656;2023-06-14T02:59:47;6.97;;;5.07;;
24559;SDS011;12727;49.934;8.656;2023-06-14T03:02:12;7.28;;;5.00;;
24559;SDS011;12727;49.934;8.656;2023-06-14T03:04:38;7.63;;;5.07;;
24559;SDS011;12727;49.934;8.656;2023-06-14T03:07:04;8.40;;;5.85;;
24559;SDS011;12727;49.934;8.656;2023-06-14T03:09:37;7.93;;;5.35;;
24559;SDS011;12727;49.934;8.656;2023-06-14T03:12:04;6.53;;;5.00;;
24559;SDS011;12727;49.934;8.656;2023-06-14T03:14:33;7.50;;;5.43;;
24559;SDS011;12727;49.934;8.656;2023-06-14T03:16:59;8.52;;;5.47;;
24559;SDS011;12727;49.934;8.656;2023-06-14T03:19:25;5.80;;;5.20;;
24559;SDS011;12727;49.934;8.656;2023-06-14T03:21:51;6.53;;;5.25;;
24559;SDS011;12727;49.934;8.656;2023-06-14T03:24:18;5.93;;;4.82;;
24559;SDS011;12727;49.934;8.656;2023-06-14T03:26:44;6.05;;;5.18;;
24559;SDS011;12727;49.934;8.656;2023-06-14T03:29:11;9.52;;;5.47;;
24559;SDS011;12727;49.934;8.656;2023-06-14T03:31:41;8.93;;;5.05;;
24559;SDS011;12727;49.934;8.656;2023-06-14T03:34:21;8.88;;;5.00;;
24559;SDS011;12727;49.934;8.656;2023-06-14T03:36:46;6.38;;;4.90;;
24559;SDS011;12727;49.934;8.656;2023-06-14T03:39:12;6.30;;;5.30;;
24559;SDS011;12727;49.934;8.656;2023-06-14T03:41:37;10.25;;;4.53;;
24559;SDS011;12727;49.934;8.656;2023-06-14T03:44:03;6.85;;;5.10;;
24559;SDS011;12727;49.934;8.656;2023-06-14T03:46:29;6.63;;;4.70;;
24559;SDS011;12727;49.934;8.656;2023-06-14T03:48:54;9.82;;;4.97;;
24559;SDS011;12727;49.934;8.656;2023-06-14T03:51:20;7.82;;;4.63;;
24559;SDS011;12727;49.934;8.656;2023-06-14T03:53:47;6.53;;;4.30;;
24559;SDS011;12727;49.934;8.656;2023-06-14T03:56:13;5.70;;;4.25;;
24559;SDS011;12727;49.934;8.656;2023-06-14T03:58:38;5.47;;;3.90;;
24559;SDS011;12727;49.934;8.656;2023-06-14T04:01:04;5.57;;;4.20;;
24559;SDS011;12727;49.934;8.656;2023-06-14T04:03:32;9.40;;;4.55;;
24559;SDS011;12727;49.934;8.656;2023-06-14T04:05:58;4.78;;;3.83;;
24559;SDS011;12727;49.934;8.656;2023-06-14T04:08:25;6.50;;;3.95;;
24559;SDS011;12727;49.934;8.656;2023-06-14T04:10:50;4.80;;;4.15;;
24559;SDS011;12727;49.934;8.656;2023-06-14T04:13:16;5.57;;;3.85;;
24559;SDS011;12727;49.934;8.656;2023-06-14T04:15:42;6.78;;;4.10;;
24559;SDS011;12727;49.934;8.656;2023-06-14T04:18:08;6.88;;;4.63;;
24559;SDS011;12727;49.934;8.656;2023-06-14T04:20:34;6.43;;;4.13;;
24559;SDS011;12727;49.934;8.656;2023-06-14T04:23:21;5.10;;;4.28;;
24559;SDS011;12727;49.934;8.656;2023-06-14T04:25:46;5.88;;;3.90;;
24559;SDS011;12727;49.934;8.656;2023-06-14T04:28:14;6.05;;;4.35;;
24559;SDS011;12727;49.934;8.656;2023-06-14T04:30:43;7.65;;;4.30;;
24559;SDS011;12727;49.934;8.656;2023-06-14T04:33:12;9.25;;;4.22;;
24559;SDS011;12727;49.934;8.656;2023-06-14T04:35:38;7.75;;;4.47;;
24559;SDS011;12727;49.934;8.656;2023-06-14T04:38:05;8.18;;;4.30;;
24559;SDS011;12727;49.934;8.656;2023-06-14T04:40:38;8.52;;;4.10;;
24559;SDS011;12727;49.934;8.656;2023-06-14T04:43:08;7.30;;;4.00;;
24559;SDS011;12727;49.934;8.656;2023-06-14T04:45:37;6.90;;;4.20;;
24559;SDS011;12727;49.934;8.656;2023-06-14T04:48:04;4.88;;;3.92;;
24559;SDS011;12727;49.934;8.656;2023-06-14T04:50:31;5.30;;;3.90;;
24559;SDS011;12727;49.934;8.656;2023-06-14T04:52:57;6.90;;;3.55;;
24559;SDS011;12727;49.934;8.656;2023-06-14T04:55:24;6.70;;;3.95;;
24559;SDS011;12727;49.934;8.656;2023-06-14T04:57:51;7.47;;;3.88;;
24559;SDS011;12727;49.934;8.656;2023-06-14T05:00:19;5.18;;;4.03;;
24559;SDS011;12727;49.934;8.656;2023-06-14T05:02:45;6.15;;;4.00;;
24559;SDS011;12727;49.934;8.656;2023-06-14T05:05:12;6.85;;;4.20;;
24559;SDS011;12727;49.934;8.656;2023-06-14T05:07:38;6.18;;;3.85;;
24559;SDS011;12727;49.934;8.656;2023-06-14T05:10:04;9.43;;;3.92;;
24559;SDS011;12727;49.934;8.656;2023-06-14T05:12:30;7.05;;;3.90;;
24559;SDS011;12727;49.934;8.656;2023-06-14T05:14:56;6.50;;;4.30;;
24559;SDS011;12727;49.934;8.656;2023-06-14T05:17:23;7.70;;;3.90;;
24559;SDS011;12727;49.934;8.656;2023-06-14T05:19:49;5.00;;;4.30;;
24559;SDS011;12727;49.934;8.656;2023-06-14T05:22:14;5.78;;;4.00;;
24559;SDS011;12727;49.934;8.656;2023-06-14T05:24:40;6.78;;;3.55;;
24559;SDS011;12727;49.934;8.656;2023-06-14T05:27:07;7.03;;;3.75;;
24559;SDS011;12727;49.934;8.656;2023-06-14T05:29:33;7.40;;;4.18;;
24559;SDS011;12727;49.934;8.656;2023-06-14T05:31:58;7.55;;;3.40;;
24559;SDS011;12727;49.934;8.656;2023-06-14T05:34:24;7.93;;;3.80;;
24559;SDS011;12727;49.934;8.656;2023-06-14T05:36:50;7.63;;;4.00;;
24559;SDS011;12727;49.934;8.656;2023-06-14T05:39:16;5.50;;;3.40;;
24559;SDS011;12727;49.934;8.656;2023-06-14T05:41:42;6.10;;;3.90;;
24559;SDS011;12727;49.934;8.656;2023-06-14T05:44:07;4.70;;;3.65;;
24559;SDS011;12727;49.934;8.656;2023-06-14T05:46:33;8.98;;;3.67;;
24559;SDS011;12727;49.934;8.656;2023-06-14T05:48:59;6.68;;;3.65;;
24559;SDS011;12727;49.934;8.656;2023-06-14T05:51:25;5.35;;;3.90;;
24559;SDS011;12727;49.934;8.656;2023-06-14T05:53:51;9.13;;;3.60;;
24559;SDS011;12727;49.934;8.656;2023-06-14T05:56:17;5.82;;;3.40;;
24559;SDS011;12727;49.934;8.656;2023-06-14T05:58:44;10.73;;;3.97;;
24559;SDS011;12727;49.934;8.656;2023-06-14T06:01:10;6.82;;;3.70;;
24559;SDS011;12727;49.934;8.656;2023-06-14T06:03:36;5.43;;;4.07;;
24559;SDS011;12727;49.934;8.656;2023-06-14T06:06:02;7.55;;;4.10;;
24559;SDS011;12727;49.934;8.656;2023-06-14T06:08:28;10.20;;;3.97;;
24559;SDS011;12727;49.934;8.656;2023-06-14T06:10:56;6.18;;;3.50;;
24559;SDS011;12727;49.934;8.656;2023-06-14T06:13:22;6.72;;;3.55;;
24559;SDS011;12727;49.934;8.656;2023-06-14T06:15:48;6.07;;;3.97;;
24559;SDS011;12727;49.934;8.656;2023-06-14T06:18:17;4.88;;;3.67;;
24559;SDS011;12727;49.934;8.656;2023-06-14T06:20:42;10.80;;;3.75;;
24559;SDS011;12727;49.934;8.656;2023-06-14T06:23:09;6.25;;;3.60;;
24559;SDS011;12727;49.934;8.656;2023-06-14T06:25:35;6.68;;;3.88;;
24559;SDS011;12727;49.934;8.656;2023-06-14T06:28:00;5.18;;;3.30;;
24559;SDS011;12727;49.934;8.656;2023-06-14T06:30:26;5.53;;;3.58;;
24559;SDS011;12727;49.934;8.656;2023-06-14T06:32:52;6.30;;;3.60;;
24559;SDS011;12727;49.934;8.656;2023-06-14T06:35:18;6.65;;;3.53;;
24559;SDS011;12727;49.934;8.656;2023-06-14T06:37:44;6.65;;;3.95;;
24559;SDS011;12727;49.934;8.656;2023-06-14T06:40:09;6.05;;;3.63;;
24559;SDS011;12727;49.934;8.656;2023-06-14T06:42:35;4.45;;;3.58;;
24559;SDS011;12727;49.934;8.656;2023-06-14T06:45:01;6.15;;;3.92;;
24559;SDS011;12727;49.934;8.656;2023-06-14T06:47:27;8.30;;;4.07;;
24559;SDS011;12727;49.934;8.656;2023-06-14T06:49:52;9.52;;;3.63;;
24559;SDS011;12727;49.934;8.656;2023-06-14T06:52:18;6.07;;;3.63;;
24559;SDS011;12727;49.934;8.656;2023-06-14T06:54:44;9.50;;;4.03;;
24559;SDS011;12727;49.934;8.656;2023-06-14T06:57:09;6.57;;;3.40;;
24559;SDS011;12727;49.934;8.656;2023-06-14T06:59:36;7.97;;;3.58;;
24559;SDS011;12727;49.934;8.656;2023-06-14T07:02:02;4.25;;;3.40;;
24559;SDS011;12727;49.934;8.656;2023-06-14T07:04:28;4.85;;;3.50;;
24559;SDS011;12727;49.934;8.656;2023-06-14T07:06:56;5.82;;;3.15;;
24559;SDS011;12727;49.934;8.656;2023-06-14T07:09:22;5.30;;;3.60;;
24559;SDS011;12727;49.934;8.656;2023-06-14T07:11:48;7.40;;;3.45;;
24559;SDS011;12727;49.934;8.656;2023-06-14T07:14:14;4.65;;;3.30;;
24559;SDS011;12727;49.934;8.656;2023-06-14T07:16:40;4.97;;;3.17;;
24559;SDS011;12727;49.934;8.656;2023-06-14T07:19:06;3.95;;;3.28;;
24559;SDS011;12727;49.934;8.656;2023-06-14T07:21:32;5.68;;;3.42;;
24559;SDS011;12727;49.934;8.656;2023-06-14T07:23:58;7.50;;;3.35;;
24559;SDS011;12727;49.934;8.656;2023-06-14T07:26:23;5.05;;;3.17;;
24559;SDS011;12727;49.934;8.656;2023-06-14T07:28:50;6.82;;;3.55;;
24559;SDS011;12727;49.934;8.656;2023-06-14T07:31:17;4.85;;;2.70;;
24559;SDS011;12727;49.934;8.656;2023-06-14T07:33:44;4.70;;;2.60;;
24559;SDS011;12727;49.934;8.656;2023-06-14T07:36:10;4.53;;;3.03;;
24559;SDS011;12727;49.934;8.656;2023-06-14T07:38:35;3.70;;;3.10;;
24559;SDS011;12727;49.934;8.656;2023-06-14T07:41:01;6.13;;;3.00;;
24559;SDS011;12727;49.934;8.656;2023-06-14T07:43:27;6.30;;;3.10;;
24559;SDS011;12727;49.934;8.656;2023-06-14T07:45:53;4.15;;;2.70;;
24559;SDS011;12727;49.934;8.656;2023-06-14T07:48:19;6.47;;;3.03;;
24559;SDS011;12727;49.934;8.656;2023-06-14T07:50:44;8.50;;;3.50;;
24559;SDS011;12727;49.934;8.656;2023-06-14T07:53:10;4.72;;;3.10;;
24559;SDS011;12727;49.934;8.656;2023-06-14T07:55:36;5.13;;;3.08;;
24559;SDS011;12727;49.934;8.656;2023-06-14T07:58:05;5.22;;;2.97;;
24559;SDS011;12727;49.934;8.656;2023-06-14T08:00:31;7.22;;;3.25;;
24559;SDS011;12727;49.934;8.656;2023-06-14T08:02:57;5.18;;;2.90;;
24559;SDS011;12727;49.934;8.656;2023-06-14T08:05:24;4.88;;;2.97;;
24559;SDS011;12727;49.934;8.656;2023-06-14T08:07:51;4.65;;;3.00;;
24559;SDS011;12727;49.934;8.656;2023-06-14T08:10:17;4.85;;;2.78;;
24559;SDS011;12727;49.934;8.656;2023-06-14T08:12:43;3.50;;;2.63;;
24559;SDS011;12727;49.934;8.656;2023-06-14T08:15:09;3.45;;;2.70;;
24559;SDS011;12727;49.934;8.656;2023-06-14T08:17:34;4.22;;;2.97;;
24559;SDS011;12727;49.934;8.656;2023-06-14T08:20:01;3.83;;;2.38;;
24559;SDS011;12727;49.934;8.656;2023-06-14T08:22:29;4.88;;;2.55;;
24559;SDS011;12727;49.934;8.656;2023-06-14T08:24:58;2.38;;;2.17;;
24559;SDS011;12727;49.934;8.656;2023-06-14T08:27:25;4.25;;;2.70;;
24559;SDS011;12727;49.934;8.656;2023-06-14T08:29:50;2.70;;;2.28;;
24559;SDS011;12727;49.934;8.656;2023-06-14T08:32:16;3.70;;;2.00;;
24559;SDS011;12727;49.934;8.656;2023-06-14T08:34:42;3.45;;;2.17;;
24559;SDS011;12727;49.934;8.656;2023-06-14T08:37:07;2.45;;;1.98;;
24559;SDS011;12727;49.934;8.656;2023-06-14T08:39:33;5.93;;;1.83;;
24559;SDS011;12727;49.934;8.656;2023-06-14T08:41:59;2.85;;;1.65;;
24559;SDS011;12727;49.934;8.656;2023-06-14T08:44:28;2.10;;;1.60;;
24559;SDS011;12727;49.934;8.656;2023-06-14T08:46:55;2.20;;;2.00;;
24559;SDS011;12727;49.934;8.656;2023-06-14T08:49:22;3.55;;;1.90;;
24559;SDS011;12727;49.934;8.656;2023-06-14T08:51:52;3.17;;;1.45;;
24559;SDS011;12727;49.934;8.656;2023-06-14T08:54:22;2.58;;;1.40;;
24559;SDS011;12727;49.934;8.656;2023-06-14T08:56:49;5.53;;;1.67;;
24559;SDS011;12727;49.934;8.656;2023-06-14T08:59:16;2.63;;;1.60;;
24559;SDS011;12727;49.934;8.656;2023-06-14T09:01:43;3.08;;;1.48;;
24559;SDS011;12727;49.934;8.656;2023-06-14T09:04:10;2.80;;;1.60;;
24559;SDS011;12727;49.934;8.656;2023-06-14T09:06:36;1.35;;;1.20;;
24559;SDS011;12727;49.934;8.656;2023-06-14T09:09:02;3.45;;;1.52;;
24559;SDS011;12727;49.934;8.656;2023-06-14T09:11:29;3.55;;;1.45;;
24559;SDS011;12727;49.934;8.656;2023-06-14T09:13:55;2.03;;;1.73;;
24559;SDS011;12727;49.934;8.656;2023-06-14T09:16:21;2.97;;;1.60;;
24559;SDS011;12727;49.934;8.656;2023-06-14T09:18:47;2.95;;;1.33;;
24559;SDS011;12727;49.934;8.656;2023-06-14T09:21:13;2.70;;;1.70;;
24559;SDS011;12727;49.934;8.656;2023-06-14T09:23:41;2.40;;;1.35;;
24559;SDS011;12727;49.934;8.656;2023-06-14T09:26:18;2.63;;;1.40;;
24559;SDS011;12727;49.934;8.656;2023-06-14T09:28:45;1.73;;;1.38;;
24559;SDS011;12727;49.934;8.656;2023-06-14T09:31:12;2.28;;;1.33;;
24559;SDS011;12727;49.934;8.656;2023-06-14T09:33:46;1.63;;;1.38;;
24559;SDS011;12727;49.934;8.656;2023-06-14T09:36:16;2.97;;;1.70;;
24559;SDS011;12727;49.934;8.656;2023-06-14T09:38:51;2.28;;;1.58;;
24559;SDS011;12727;49.934;8.656;2023-06-14T09:41:36;1.50;;;1.30;;
24559;SDS011;12727;49.934;8.656;2023-06-14T09:44:03;5.57;;;1.52;;
24559;SDS011;12727;49.934;8.656;2023-06-14T09:46:30;2.22;;;1.52;;
24559;SDS011;12727;49.934;8.656;2023-06-14T09:48:56;4.93;;;1.40;;
24559;SDS011;12727;49.934;8.656;2023-06-14T09:51:25;2.28;;;1.33;;
24559;SDS011;12727;49.934;8.656;2023-06-14T09:53:52;2.90;;;1.50;;
24559;SDS011;12727;49.934;8.656;2023-06-14T09:56:23;3.17;;;1.75;;
24559;SDS011;12727;49.934;8.656;2023-06-14T09:58:56;3.40;;;1.45;;
24559;SDS011;12727;49.934;8.656;2023-06-14T10:01:26;4.00;;;1.67;;
24559;SDS011;12727;49.934;8.656;2023-06-14T10:03:55;3.95;;;1.65;;
24559;SDS011;12727;49.934;8.656;2023-06-14T10:06:27;2.45;;;1.42;;
24559;SDS011;12727;49.934;8.656;2023-06-14T10:08:56;2.00;;;1.77;;
24559;SDS011;12727;49.934;8.656;2023-06-14T10:11:25;2.33;;;1.75;;
24559;SDS011;12727;49.934;8.656;2023-06-14T10:13:51;3.30;;;1.50;;
24559;SDS011;12727;49.934;8.656;2023-06-14T10:16:29;2.58;;;1.60;;
24559;SDS011;12727;49.934;8.656;2023-06-14T10:19:11;3.13;;;1.80;;
24559;SDS011;12727;49.934;8.656;2023-06-14T10:24:48;4.32;;;1.90;;
24559;SDS011;12727;49.934;8.656;2023-06-14T10:27:15;2.65;;;1.40;;
24559;SDS011;12727;49.934;8.656;2023-06-14T10:32:21;3.17;;;1.95;;
24559;SDS011;12727;49.934;8.656;2023-06-14T10:35:01;2.95;;;1.88;;
24559;SDS011;12727;49.934;8.656;2023-06-14T10:37:30;2.42;;;1.63;;
24559;SDS011;12727;49.934;8.656;2023-06-14T10:39:56;4.65;;;1.90;;
24559;SDS011;12727;49.934;8.656;2023-06-14T10:42:23;5.55;;;1.92;;
24559;SDS011;12727;49.934;8.656;2023-06-14T10:44:59;4.95;;;1.67;;
24559;SDS011;12727;49.934;8.656;2023-06-14T10:47:29;2.50;;;1.58;;
24559;SDS011;12727;49.934;8.656;2023-06-14T10:50:09;9.50;;;2.08;;
24559;SDS011;12727;49.934;8.656;2023-06-14T10:52:40;13.30;;;2.92;;
24559;SDS011;12727;49.934;8.656;2023-06-14T10:55:07;3.35;;;1.67;;
24559;SDS011;12727;49.934;8.656;2023-06-14T11:00:11;2.00;;;1.67;;
24559;SDS011;12727;49.934;8.656;2023-06-14T11:05:49;2.03;;;1.15;;
24559;SDS011;12727;49.934;8.656;2023-06-14T11:11:22;3.10;;;1.23;;
24559;SDS011;12727;49.934;8.656;2023-06-14T11:13:50;2.10;;;1.38;;
24559;SDS011;12727;49.934;8.656;2023-06-14T11:16:17;2.97;;;1.67;;
24559;SDS011;12727;49.934;8.656;2023-06-14T11:18:45;1.83;;;1.20;;
24559;SDS011;12727;49.934;8.656;2023-06-14T11:21:15;1.90;;;1.50;;
24559;SDS011;12727;49.934;8.656;2023-06-14T11:23:43;1.85;;;1.50;;
24559;SDS011;12727;49.934;8.656;2023-06-14T11:26:14;4.97;;;2.17;;
24559;SDS011;12727;49.934;8.656;2023-06-14T11:28:40;3.90;;;1.60;;
24559;SDS011;12727;49.934;8.656;2023-06-14T11:31:06;2.15;;;1.50;;
24559;SDS011;12727;49.934;8.656;2023-06-14T11:33:33;2.80;;;1.30;;
24559;SDS011;12727;49.934;8.656;2023-06-14T11:36:01;2.90;;;1.50;;
24559;SDS011;12727;49.934;8.656;2023-06-14T11:38:28;4.03;;;1.63;;
24559;SDS011;12727;49.934;8.656;2023-06-14T11:40:58;2.33;;;1.77;;
24559;SDS011;12727;49.934;8.656;2023-06-14T11:43:25;2.70;;;1.85;;
24559;SDS011;12727;49.934;8.656;2023-06-14T11:45:52;5.03;;;1.90;;
24559;SDS011;12727;49.934;8.656;2023-06-14T11:48:18;3.58;;;1.80;;
24559;SDS011;12727;49.934;8.656;2023-06-14T11:50:44;2.55;;;1.70;;
24559;SDS011;12727;49.934;8.656;2023-06-14T11:53:09;2.13;;;1.40;;
24559;SDS011;12727;49.934;8.656;2023-06-14T11:55:38;4.90;;;1.95;;
24559;SDS011;12727;49.934;8.656;2023-06-14T11:58:05;6.97;;;2.05;;
24559;SDS011;12727;49.934;8.656;2023-06-14T12:00:35;4.18;;;2.05;;
24559;SDS011;12727;49.934;8.656;2023-06-14T12:03:01;3.97;;;1.63;;
24559;SDS011;12727;49.934;8.656;2023-06-14T12:05:28;5.13;;;1.70;;
24559;SDS011;12727;49.934;8.656;2023-06-14T12:07:59;2.75;;;1.88;;
24559;SDS011;12727;49.934;8.656;2023-06-14T12:10:27;3.03;;;1.80;;
24559;SDS011;12727;49.934;8.656;2023-06-14T12:12:56;2.65;;;2.00;;
24559;SDS011;12727;49.934;8.656;2023-06-14T12:15:23;4.13;;;1.88;;
24559;SDS011;12727;49.934;8.656;2023-06-14T12:17:49;2.97;;;2.08;;
24559;SDS011;12727;49.934;8.656;2023-06-14T12:20:19;2.50;;;1.92;;
24559;SDS011;12727;49.934;8.656;2023-06-14T12:25:34;3.80;;;2.13;;
24559;SDS011;12727;49.934;8.656;2023-06-14T12:28:08;2.85;;;1.83;;
24559;SDS011;12727;49.934;8.656;2023-06-14T12:30:35;6.30;;;2.40;;
24559;SDS011;12727;49.934;8.656;2023-06-14T12:33:02;3.20;;;2.10;;
24559;SDS011;12727;49.934;8.656;2023-06-14T12:35:28;6.15;;;2.53;;
24559;SDS011;12727;49.934;8.656;2023-06-14T12:37:53;3.78;;;2.30;;
24559;SDS011;12727;49.934;8.656;2023-06-14T12:40:19;2.38;;;2.10;;
24559;SDS011;12727;49.934;8.656;2023-06-14T12:42:45;2.60;;;2.17;;
24559;SDS011;12727;49.934;8.656;2023-06-14T12:45:12;2.20;;;1.85;;
24559;SDS011;12727;49.934;8.656;2023-06-14T12:47:38;3.55;;;2.20;;
24559;SDS011;12727;49.934;8.656;2023-06-14T12:50:04;3.97;;;2.33;;
24559;SDS011;12727;49.934;8.656;2023-06-14T12:52:30;3.90;;;2.17;;
24559;SDS011;12727;49.934;8.656;2023-06-14T12:54:56;3.28;;;2.10;;
24559;SDS011;12727;49.934;8.656;2023-06-14T12:57:23;4.55;;;2.38;;
24559;SDS011;12727;49.934;8.656;2023-06-14T12:59:49;2.75;;;2.05;;
24559;SDS011;12727;49.934;8.656;2023-06-14T13:02:15;2.58;;;2.15;;
24559;SDS011;12727;49.934;8.656;2023-06-14T13:04:42;3.25;;;2.08;;
24559;SDS011;12727;49.934;8.656;2023-06-14T13:07:09;4.38;;;2.08;;
24559;SDS011;12727;49.934;8.656;2023-06-14T13:09:35;4.10;;;2.00;;
24559;SDS011;12727;49.934;8.656;2023-06-14T13:12:01;3.50;;;2.17;;
24559;SDS011;12727;49.934;8.656;2023-06-14T13:14:27;2.40;;;1.90;;
24559;SDS011;12727;49.934;8.656;2023-06-14T13:16:53;3.03;;;2.15;;
24559;SDS011;12727;49.934;8.656;2023-06-14T13:19:19;3.03;;;2.10;;
24559;SDS011;12727;49.934;8.656;2023-06-14T13:21:44;4.82;;;1.90;;
24559;SDS011;12727;49.934;8.656;2023-06-14T13:24:10;5.07;;;2.42;;
24559;SDS011;12727;49.934;8.656;2023-06-14T13:26:35;2.97;;;2.22;;
24559;SDS011;12727;49.934;8.656;2023-06-14T13:29:01;3.72;;;2.00;;
24559;SDS011;12727;49.934;8.656;2023-06-14T13:31:27;4.90;;;2.05;;
24559;SDS011;12727;49.934;8.656;2023-06-14T13:33:53;3.88;;;2.15;;
24559;SDS011;12727;49.934;8.656;2023-06-14T13:36:18;2.15;;;1.80;;
24559;SDS011;12727;49.934;8.656;2023-06-14T13:38:44;5.03;;;2.25;;
24559;SDS011;12727;49.934;8.656;2023-06-14T13:41:09;3.20;;;1.83;;
24559;SDS011;12727;49.934;8.656;2023-06-14T13:43:35;3.97;;;2.13;;
24559;SDS011;12727;49.934;8.656;2023-06-14T13:46:01;3.15;;;2.00;;
24559;SDS011;12727;49.934;8.656;2023-06-14T13:48:26;3.15;;;1.75;;
24559;SDS011;12727;49.934;8.656;2023-06-14T13:50:52;3.05;;;1.95;;
24559;SDS011;12727;49.934;8.656;2023-06-14T13:53:17;2.85;;;2.00;;
24559;SDS011;12727;49.934;8.656;2023-06-14T13:55:43;2.67;;;1.90;;
24559;SDS011;12727;49.934;8.656;2023-06-14T13:58:09;2.50;;;2.10;;
24559;SDS011;12727;49.934;8.656;2023-06-14T14:00:35;2.75;;;1.75;;
24559;SDS011;12727;49.934;8.656;2023-06-14T14:03:05;2.40;;;1.83;;
24559;SDS011;12727;49.934;8.656;2023-06-14T14:05:31;6.63;;;1.90;;
24559;SDS011;12727;49.934;8.656;2023-06-14T14:07:57;4.10;;;2.00;;
24559;SDS011;12727;49.934;8.656;2023-06-14T14:10:24;2.83;;;2.00;;
24559;SDS011;12727;49.934;8.656;2023-06-14T14:12:50;3.08;;;2.00;;
24559;SDS011;12727;49.934;8.656;2023-06-14T14:15:16;2.45;;;1.70;;
24559;SDS011;12727;49.934;8.656;2023-06-14T14:17:42;6.40;;;1.73;;
24559;SDS011;12727;49.934;8.656;2023-06-14T14:20:08;2.60;;;1.98;;
24559;SDS011;12727;49.934;8.656;2023-06-14T14:22:34;2.60;;;1.80;;
24559;SDS011;12727;49.934;8.656;2023-06-14T14:25:00;3.60;;;2.05;;
24559;SDS011;12727;49.934;8.656;2023-06-14T14:27:25;3.35;;;1.98;;
24559;SDS011;12727;49.934;8.656;2023-06-14T14:29:51;5.28;;;2.00;;
24559;SDS011;12727;49.934;8.656;2023-06-14T14:32:17;4.57;;;1.83;;
24559;SDS011;12727;49.934;8.656;2023-06-14T14:34:42;4.25;;;2.00;;
24559;SDS011;12727;49.934;8.656;2023-06-14T14:37:08;2.58;;;1.80;;
24559;SDS011;12727;49.934;8.656;2023-06-14T14:39:34;2.70;;;1.75;;
24559;SDS011;12727;49.934;8.656;2023-06-14T14:42:01;2.50;;;2.00;;
24559;SDS011;12727;49.934;8.656;2023-06-14T14:44:27;2.28;;;1.70;;
24559;SDS011;12727;49.934;8.656;2023-06-14T14:46:52;4.88;;;2.00;;
24559;SDS011;12727;49.934;8.656;2023-06-14T14:49:18;3.47;;;1.83;;
24559;SDS011;12727;49.934;8.656;2023-06-14T14:51:44;3.75;;;1.98;;
24559;SDS011;12727;49.934;8.656;2023-06-14T14:54:09;3.08;;;1.90;;
24559;SDS011;12727;49.934;8.656;2023-06-14T14:56:35;3.08;;;1.75;;
24559;SDS011;12727;49.934;8.656;2023-06-14T14:59:02;2.45;;;1.83;;
24559;SDS011;12727;49.934;8.656;2023-06-14T15:01:28;4.07;;;1.85;;
24559;SDS011;12727;49.934;8.656;2023-06-14T15:03:54;3.22;;;1.60;;
24559;SDS011;12727;49.934;8.656;2023-06-14T15:06:20;2.88;;;1.63;;